Time;durP1;ratioP1;P1;durP2;ratioP2;P2;SDS_P1;SDS_P2;PMS_P1;PMS_P2;Temp;Humidity;BMP_temperature;BMP_pressure;BME280_temperature;BME280_humidity;BME280_pressure;Samples;Min_cycle;Max_cycle;Signal;HPM_P1;HPM_P2
2024/03/08 00:01:16;;;;;;;20.30;12.05;;;5.20;88.90;;;;;;5091097;28;20131;-34
2024/03/08 00:03:42;;;;;;;21.27;13.00;;;5.20;88.80;;;;;;5091098;28;20051;-36
2024/03/08 00:06:07;;;;;;;21.85;13.02;;;5.20;88.70;;;;;;5091131;28;20028;-34
2024/03/08 00:08:33;;;;;;;22.35;12.90;;;5.10;88.70;;;;;;5091404;28;20052;-34
2024/03/08 00:10:58;;;;;;;22.15;12.98;;;5.20;88.60;;;;;;5091167;28;20037;-35
2024/03/08 00:13:25;;;;;;;22.10;13.13;;;5.20;88.50;;;;;;5090886;28;20036;-36
2024/03/08 00:15:51;;;;;;;19.70;11.60;;;5.10;88.40;;;;;;5091241;28;20177;-36
2024/03/08 00:18:16;;;;;;;20.30;12.45;;;5.10;88.40;;;;;;5090889;28;20058;-34
2024/03/08 00:20:43;;;;;;;19.17;11.73;;;5.10;88.50;;;;;;5090967;28;20046;-35
2024/03/08 00:23:10;;;;;;;19.80;12.75;;;5.10;88.40;;;;;;5091152;28;20032;-34
2024/03/08 00:25:36;;;;;;;21.77;12.82;;;5.10;88.40;;;;;;5090709;28;20085;-37
2024/03/08 00:28:04;;;;;;;21.88;11.77;;;5.10;88.40;;;;;;5091340;28;20032;-34
2024/03/08 00:30:31;;;;;;;24.02;12.73;;;5.10;88.30;;;;;;5090732;28;20028;-35
2024/03/08 00:32:56;;;;;;;20.33;12.27;;;5.00;88.20;;;;;;5090775;28;20099;-35
2024/03/08 00:35:22;;;;;;;21.50;12.95;;;5.00;88.10;;;;;;5093483;28;20052;-34
2024/03/08 00:37:48;;;;;;;21.58;12.50;;;5.00;88.00;;;;;;5094401;28;20024;-34
2024/03/08 00:40:14;;;;;;;21.90;12.88;;;5.00;87.90;;;;;;5094390;28;20488;-35
2024/03/08 00:42:41;;;;;;;21.42;12.73;;;4.90;87.70;;;;;;5094383;28;20024;-35
2024/03/08 00:45:07;;;;;;;19.70;11.77;;;4.90;87.70;;;;;;5094544;28;20032;-35
2024/03/08 00:47:33;;;;;;;22.38;12.80;;;4.90;87.60;;;;;;5094399;28;20023;-35
2024/03/08 00:49:58;;;;;;;20.67;12.15;;;4.90;87.50;;;;;;5094164;28;20082;-35
2024/03/08 00:52:24;;;;;;;20.58;12.02;;;4.90;87.40;;;;;;5094381;28;20036;-34
2024/03/08 00:54:50;;;;;;;20.02;11.98;;;4.90;87.40;;;;;;5092623;28;20038;-36
2024/03/08 00:57:16;;;;;;;19.00;11.60;;;4.90;87.30;;;;;;5094074;28;20031;-36
2024/03/08 00:59:41;;;;;;;18.92;11.68;;;4.90;87.30;;;;;;5094160;28;20032;-35
2024/03/08 01:02:08;;;;;;;18.60;11.27;;;4.90;87.10;;;;;;5094166;28;20488;-36
2024/03/08 01:04:35;;;;;;;18.63;11.43;;;4.90;87.30;;;;;;5094079;28;20116;-33
2024/03/08 01:07:00;;;;;;;20.95;12.38;;;4.80;87.10;;;;;;5093790;28;20028;-36
2024/03/08 01:09:27;;;;;;;17.75;11.18;;;4.80;87.10;;;;;;5093817;28;20061;-37
2024/03/08 01:11:56;;;;;;;19.17;12.10;;;4.80;87.00;;;;;;5094035;28;20024;-34
2024/03/08 01:14:31;;;;;;;20.98;11.68;;;4.80;86.90;;;;;;5093802;28;20070;-35
2024/03/08 01:16:57;;;;;;;20.60;12.07;;;4.70;86.80;;;;;;5093779;28;20020;-34
2024/03/08 01:19:23;;;;;;;22.25;13.00;;;4.70;86.70;;;;;;5093953;28;20020;-34
2024/03/08 01:21:49;;;;;;;21.27;12.45;;;4.70;87.10;;;;;;5093667;28;20537;-36
2024/03/08 01:24:15;;;;;;;18.77;12.15;;;4.70;86.40;;;;;;5093783;28;20119;-34
2024/03/08 01:26:40;;;;;;;18.98;11.73;;;4.70;86.40;;;;;;5093639;28;20380;-35
2024/03/08 01:29:06;;;;;;;19.15;12.10;;;4.70;86.30;;;;;;5093711;28;20020;-34
2024/03/08 01:31:32;;;;;;;19.40;11.73;;;4.60;86.20;;;;;;5093385;28;20093;-39
2024/03/08 01:33:58;;;;;;;17.83;12.10;;;4.60;86.10;;;;;;5093303;28;20416;-34
2024/03/08 01:36:24;;;;;;;18.80;12.02;;;4.60;86.10;;;;;;5093564;28;20480;-36
2024/03/08 01:38:50;;;;;;;17.70;12.40;;;4.60;86.00;;;;;;5093380;28;20031;-36
2024/03/08 01:41:17;;;;;;;17.63;11.68;;;4.60;85.90;;;;;;5093266;28;20051;-36
2024/03/08 01:43:43;;;;;;;17.30;11.73;;;4.60;85.70;;;;;;5093373;28;20541;-34
2024/03/08 01:46:11;;;;;;;18.73;12.05;;;4.60;85.60;;;;;;5091816;28;20031;-35
2024/03/08 01:48:37;;;;;;;18.65;12.00;;;4.60;85.50;;;;;;5093258;28;20611;-35
2024/03/08 01:51:02;;;;;;;18.38;11.30;;;4.60;85.50;;;;;;5093010;28;20114;-35
2024/03/08 01:53:29;;;;;;;20.08;12.38;;;4.50;85.40;;;;;;5092860;28;20032;-35
2024/03/08 01:55:57;;;;;;;18.13;11.77;;;4.60;85.30;;;;;;5092742;28;20479;-35
2024/03/08 01:58:25;;;;;;;18.98;12.50;;;4.50;85.30;;;;;;5093014;28;20450;-35
2024/03/08 02:00:53;;;;;;;21.70;12.63;;;4.50;85.10;;;;;;5092817;28;20123;-35
2024/03/08 02:03:19;;;;;;;17.50;12.50;;;4.50;85.10;;;;;;5092676;28;20119;-34
2024/03/08 02:05:44;;;;;;;19.30;12.68;;;4.50;85.00;;;;;;5092594;28;20111;-35
2024/03/08 02:08:14;;;;;;;19.08;12.40;;;4.50;84.90;;;;;;5092595;28;20036;-35
2024/03/08 02:10:46;;;;;;;17.20;11.88;;;4.50;84.90;;;;;;5092865;28;20039;-35
2024/03/08 02:13:12;;;;;;;19.52;12.20;;;4.40;84.90;;;;;;5092464;28;20059;-36
2024/03/08 02:15:54;;;;;;;19.38;12.18;;;4.40;84.80;;;;;;5092581;28;20492;-34
2024/03/08 02:18:21;;;;;;;19.38;12.13;;;4.40;84.70;;;;;;5092420;28;20024;-35
2024/03/08 02:21:00;;;;;;;17.95;12.20;;;4.40;84.70;;;;;;5092317;28;20431;-35
2024/03/08 02:23:27;;;;;;;21.10;13.00;;;4.40;84.70;;;;;;5092668;28;20094;-33
2024/03/08 02:25:54;;;;;;;20.50;12.88;;;4.30;84.60;;;;;;5092243;28;20034;-35
2024/03/08 02:28:20;;;;;;;18.38;11.95;;;4.30;84.60;;;;;;5092547;28;20024;-36
2024/03/08 02:30:50;;;;;;;21.10;12.10;;;4.30;84.60;;;;;;5092486;28;20040;-35
2024/03/08 02:33:17;;;;;;;20.27;12.75;;;4.30;84.50;;;;;;5092133;28;20122;-34
2024/03/08 02:35:46;;;;;;;20.13;13.18;;;4.20;84.40;;;;;;5091876;28;20407;-34
2024/03/08 02:38:16;;;;;;;17.35;12.68;;;4.20;84.40;;;;;;5092050;28;20020;-35
2024/03/08 02:40:43;;;;;;;22.38;13.40;;;4.20;84.40;;;;;;5092659;28;20049;-36
2024/03/08 02:43:09;;;;;;;18.48;12.80;;;4.20;84.30;;;;;;5091947;28;20039;-35
2024/03/08 02:45:35;;;;;;;20.30;12.95;;;4.10;84.30;;;;;;5091952;28;20038;-35
2024/03/08 02:48:01;;;;;;;19.40;12.90;;;4.10;84.30;;;;;;5092008;28;20491;-35
2024/03/08 02:50:26;;;;;;;16.77;12.23;;;4.10;84.30;;;;;;5091963;28;20118;-35
2024/03/08 02:52:52;;;;;;;18.02;12.60;;;4.10;84.40;;;;;;5092019;28;20020;-35
2024/03/08 02:55:18;;;;;;;16.85;11.90;;;4.00;84.20;;;;;;5091880;28;20032;-33
2024/03/08 02:57:44;;;;;;;17.98;12.73;;;4.00;84.20;;;;;;5091670;28;20063;-35
2024/03/08 03:00:10;;;;;;;19.83;12.43;;;4.00;84.20;;;;;;5091746;28;20339;-35
2024/03/08 03:02:37;;;;;;;20.83;13.43;;;4.00;84.20;;;;;;5091734;28;20396;-35
2024/03/08 03:05:05;;;;;;;18.98;12.63;;;4.00;84.20;;;;;;5091810;28;20396;-36
2024/03/08 03:07:33;;;;;;;18.00;13.07;;;4.00;84.20;;;;;;5091945;28;20047;-35
2024/03/08 03:10:02;;;;;;;19.60;12.13;;;4.00;84.10;;;;;;5091493;28;20036;-35
2024/03/08 03:12:29;;;;;;;19.83;13.60;;;4.00;84.10;;;;;;5091512;28;20036;-34
2024/03/08 03:14:56;;;;;;;18.27;12.57;;;4.00;84.10;;;;;;5091514;28;20397;-34
2024/03/08 03:17:25;;;;;;;20.55;12.98;;;3.90;84.00;;;;;;5091519;28;20024;-36
2024/03/08 03:19:51;;;;;;;20.55;13.45;;;3.90;84.00;;;;;;5091575;28;20043;-36
2024/03/08 03:22:18;;;;;;;19.42;13.23;;;3.90;84.00;;;;;;5091799;28;20099;-36
2024/03/08 03:24:44;;;;;;;18.05;12.60;;;3.80;84.00;;;;;;5091345;28;20069;-35
2024/03/08 03:27:12;;;;;;;19.17;13.25;;;3.80;83.90;;;;;;5091442;28;20365;-36
2024/03/08 03:29:45;;;;;;;22.50;13.52;;;3.80;83.90;;;;;;5091236;28;20047;-35
2024/03/08 03:32:11;;;;;;;22.50;13.38;;;3.80;83.90;;;;;;5091742;28;20500;-36
2024/03/08 03:34:37;;;;;;;20.42;13.60;;;3.80;84.00;;;;;;5091243;28;20037;-36
2024/03/08 03:37:04;;;;;;;20.65;13.32;;;3.80;83.90;;;;;;5091286;28;20601;-35
2024/03/08 03:39:34;;;;;;;20.38;13.50;;;3.70;83.90;;;;;;5091403;28;20043;-35
2024/03/08 03:42:01;;;;;;;20.10;13.43;;;3.70;83.90;;;;;;5091143;28;20028;-36
2024/03/08 03:44:28;;;;;;;23.55;13.80;;;3.70;83.80;;;;;;5091695;28;20028;-36
2024/03/08 03:46:53;;;;;;;18.23;12.95;;;3.70;83.90;;;;;;5091120;28;20025;-35
2024/03/08 03:49:19;;;;;;;19.70;13.43;;;3.70;83.80;;;;;;5091374;28;20086;-34
2024/03/08 03:51:45;;;;;;;21.23;14.18;;;3.70;83.80;;;;;;5091532;28;20024;-36
2024/03/08 03:54:12;;;;;;;22.63;14.95;;;3.70;83.80;;;;;;5090985;28;20086;-36
2024/03/08 03:56:39;;;;;;;18.80;13.50;;;3.70;83.80;;;;;;5089764;28;20388;-35
2024/03/08 03:59:06;;;;;;;21.80;14.48;;;3.70;83.80;;;;;;5089695;28;20016;-35
2024/03/08 04:01:32;;;;;;;24.05;14.80;;;3.60;83.70;;;;;;5089891;28;20480;-36
2024/03/08 04:03:58;;;;;;;19.88;13.40;;;3.60;83.70;;;;;;5091117;28;20028;-34
2024/03/08 04:06:24;;;;;;;20.58;14.05;;;3.60;83.70;;;;;;5091132;28;20051;-36
2024/03/08 04:08:49;;;;;;;22.05;13.57;;;3.60;83.70;;;;;;5091421;28;20024;-36
2024/03/08 04:11:16;;;;;;;20.42;13.10;;;3.60;83.70;;;;;;5095040;28;20139;-36
2024/03/08 04:13:42;;;;;;;21.10;13.23;;;3.60;83.70;;;;;;5093410;28;20020;-35
2024/03/08 04:16:08;;;;;;;19.65;12.65;;;3.60;83.70;;;;;;5094685;28;20059;-35
2024/03/08 04:18:40;;;;;;;20.55;13.50;;;3.50;83.60;;;;;;5094877;28;20490;-35
2024/03/08 04:21:09;;;;;;;18.27;12.52;;;3.50;83.60;;;;;;5094860;28;20043;-35
2024/03/08 04:23:35;;;;;;;21.42;13.63;;;3.50;83.70;;;;;;5095137;28;20032;-35
2024/03/08 04:26:06;;;;;;;19.55;13.10;;;3.50;83.70;;;;;;5095025;28;20036;-35
2024/03/08 04:28:31;;;;;;;19.17;13.70;;;3.50;84.30;;;;;;5095002;28;20515;-36
2024/03/08 04:30:57;;;;;;;20.38;13.35;;;3.50;83.70;;;;;;5094692;28;20107;-35
2024/03/08 04:33:23;;;;;;;20.33;12.93;;;3.50;83.70;;;;;;5094816;28;20028;-36
2024/03/08 04:35:49;;;;;;;19.85;13.95;;;3.50;83.70;;;;;;5094248;28;20115;-35
2024/03/08 04:38:15;;;;;;;22.55;13.70;;;3.40;83.60;;;;;;5093100;28;20480;-36
2024/03/08 04:40:41;;;;;;;23.73;14.70;;;3.50;83.70;;;;;;5094351;28;20016;-35
2024/03/08 04:43:08;;;;;;;19.13;13.38;;;3.40;83.50;;;;;;5092998;28;20036;-36
2024/03/08 04:45:34;;;;;;;20.55;13.05;;;3.40;83.60;;;;;;5094322;28;20047;-35
2024/03/08 04:47:59;;;;;;;19.33;13.57;;;3.40;83.60;;;;;;5094112;28;20502;-35
2024/03/08 04:50:28;;;;;;;19.83;13.68;;;3.40;83.60;;;;;;5094198;28;20038;-35
2024/03/08 04:52:54;;;;;;;20.38;14.02;;;3.40;83.60;;;;;;5092714;28;20020;-36
2024/03/08 04:55:21;;;;;;;20.92;13.80;;;3.40;83.60;;;;;;5093951;28;20079;-35
2024/03/08 04:57:49;;;;;;;21.77;13.88;;;3.40;83.60;;;;;;5094302;28;20058;-34
2024/03/08 05:00:15;;;;;;;20.25;13.52;;;3.40;83.60;;;;;;5094064;28;20036;-35
2024/03/08 05:02:41;;;;;;;20.23;13.57;;;3.30;83.60;;;;;;5094112;28;20377;-35
2024/03/08 05:05:11;;;;;;;19.60;12.90;;;3.40;83.60;;;;;;5093756;28;20120;-35
2024/03/08 05:07:37;;;;;;;18.08;12.80;;;3.30;83.60;;;;;;5093836;28;20444;-35
2024/03/08 05:10:03;;;;;;;21.33;13.55;;;3.30;83.60;;;;;;5093983;28;20063;-36
2024/03/08 05:12:28;;;;;;;19.63;13.20;;;3.30;83.60;;;;;;5093669;28;20647;-35
2024/03/08 05:14:55;;;;;;;20.80;13.68;;;3.30;83.60;;;;;;5093809;28;20060;-35
2024/03/08 05:17:20;;;;;;;19.63;13.50;;;3.30;83.60;;;;;;5093609;28;20503;-36
2024/03/08 05:19:46;;;;;;;20.80;13.90;;;3.30;83.60;;;;;;5092191;28;20025;-34
2024/03/08 05:22:12;;;;;;;23.65;13.85;;;3.30;83.50;;;;;;5093530;28;20035;-35
2024/03/08 05:24:37;;;;;;;19.80;13.05;;;3.30;83.60;;;;;;5093640;28;20035;-35
2024/03/08 05:27:03;;;;;;;21.50;14.57;;;3.30;83.60;;;;;;5093358;28;20039;-35
2024/03/08 05:29:29;;;;;;;21.17;13.68;;;3.30;83.60;;;;;;5093586;28;20036;-36
2024/03/08 05:31:56;;;;;;;22.30;14.52;;;3.30;83.60;;;;;;5093542;28;20318;-34
2024/03/08 05:34:22;;;;;;;21.67;13.85;;;3.30;83.50;;;;;;5093173;28;20044;-35
2024/03/08 05:36:50;;;;;;;20.08;13.60;;;3.20;83.50;;;;;;5093454;28;20103;-36
2024/03/08 05:39:17;;;;;;;23.23;13.68;;;3.30;83.60;;;;;;5093409;28;20028;-35
2024/03/08 05:41:43;;;;;;;23.35;14.48;;;3.30;83.50;;;;;;5093466;28;20020;-36
2024/03/08 05:44:10;;;;;;;21.20;14.18;;;3.20;83.50;;;;;;5092981;28;20488;-34
2024/03/08 05:46:36;;;;;;;20.75;14.65;;;3.20;83.40;;;;;;5092983;28;20043;-36
2024/03/08 05:49:05;;;;;;;21.98;13.70;;;3.20;83.40;;;;;;5093225;28;20489;-35
2024/03/08 05:51:35;;;;;;;23.75;14.18;;;3.10;83.30;;;;;;5092987;28;20118;-36
2024/03/08 05:54:05;;;;;;;22.50;14.32;;;3.20;83.40;;;;;;5092945;28;20076;-35
2024/03/08 05:56:31;;;;;;;22.95;14.95;;;3.10;83.40;;;;;;5092615;28;20056;-34
2024/03/08 05:59:00;;;;;;;23.83;14.55;;;3.10;83.40;;;;;;5093088;28;20449;-35
2024/03/08 06:01:26;;;;;;;21.55;13.98;;;3.10;83.40;;;;;;5093195;28;20381;-33
2024/03/08 06:03:55;;;;;;;22.52;14.38;;;3.10;83.40;;;;;;5092790;28;20051;-36
2024/03/08 06:06:21;;;;;;;19.83;13.63;;;3.10;83.40;;;;;;5092643;28;20106;-36
2024/03/08 06:08:48;;;;;;;20.40;13.63;;;3.10;83.40;;;;;;5093097;28;20024;-35
2024/03/08 06:11:15;;;;;;;20.02;13.55;;;3.10;83.40;;;;;;5091743;28;20024;-35
2024/03/08 06:13:40;;;;;;;21.30;14.23;;;3.10;83.40;;;;;;5092422;28;20022;-35
2024/03/08 06:16:08;;;;;;;22.13;13.27;;;3.10;83.40;;;;;;5092889;28;20616;-36
2024/03/08 06:18:36;;;;;;;19.27;13.23;;;3.10;83.40;;;;;;5092925;28;20381;-35
2024/03/08 06:21:02;;;;;;;22.35;13.88;;;3.10;83.60;;;;;;5092638;28;20016;-35
2024/03/08 06:23:28;;;;;;;21.83;13.40;;;3.20;83.70;;;;;;5092327;28;20028;-35
2024/03/08 06:25:54;;;;;;;19.88;13.15;;;3.20;83.80;;;;;;5092370;28;20031;-35
2024/03/08 06:28:20;;;;;;;19.80;12.90;;;3.20;83.90;;;;;;5092302;28;20028;-36
2024/03/08 06:30:46;;;;;;;21.25;13.40;;;3.20;84.10;;;;;;5092699;28;20028;-35
2024/03/08 06:33:11;;;;;;;20.17;13.38;;;3.20;84.30;;;;;;5091888;28;20016;-35
2024/03/08 06:35:40;;;;;;;20.83;13.93;;;3.20;84.40;;;;;;5092040;28;20044;-34
2024/03/08 06:38:07;;;;;;;22.13;13.52;;;3.30;84.50;;;;;;5092112;28;20016;-35
2024/03/08 06:40:33;;;;;;;21.63;14.30;;;3.30;84.60;;;;;;5092042;28;20020;-35
2024/03/08 06:42:58;;;;;;;22.42;14.90;;;3.30;84.60;;;;;;5090674;28;20051;-36
2024/03/08 06:45:25;;;;;;;23.73;15.55;;;3.30;84.50;;;;;;5092238;28;20111;-35
2024/03/08 06:47:51;;;;;;;25.63;16.05;;;3.30;84.40;;;;;;5092153;28;20023;-35
2024/03/08 06:50:17;;;;;;;22.25;15.45;;;3.30;84.20;;;;;;5091921;28;20387;-35
2024/03/08 06:52:44;;;;;;;25.00;16.65;;;3.30;84.10;;;;;;5091774;28;20020;-36
2024/03/08 06:55:12;;;;;;;26.35;16.08;;;3.30;84.20;;;;;;5091686;28;20426;-35
2024/03/08 06:57:40;;;;;;;21.73;14.57;;;3.30;84.20;;;;;;5091786;28;20028;-36
2024/03/08 07:00:11;;;;;;;24.55;14.98;;;3.30;84.20;;;;;;5090897;28;20491;-36
2024/03/08 07:02:36;;;;;;;21.80;14.15;;;3.30;84.30;;;;;;5090551;28;20415;-36
2024/03/08 07:05:04;;;;;;;22.30;14.55;;;3.30;84.10;;;;;;5090437;28;20030;-36
2024/03/08 07:07:30;;;;;;;26.05;15.70;;;3.30;84.10;;;;;;5090542;28;20055;-33
2024/03/08 07:09:56;;;;;;;24.00;15.43;;;3.40;84.20;;;;;;5090668;28;20115;-35
2024/03/08 07:12:23;;;;;;;21.95;15.40;;;3.40;84.30;;;;;;5090656;28;20556;-35
2024/03/08 07:14:49;;;;;;;25.13;15.70;;;3.40;84.50;;;;;;5090404;28;20101;-34
2024/03/08 07:17:14;;;;;;;22.48;14.82;;;3.50;84.50;;;;;;5090604;28;20110;-36
2024/03/08 07:19:40;;;;;;;23.58;14.18;;;3.50;84.50;;;;;;5090396;28;20099;-35
2024/03/08 07:22:08;;;;;;;22.17;13.55;;;3.50;84.60;;;;;;5090415;28;20016;-34
2024/03/08 07:27:05;;;;;;;23.30;13.88;;;3.60;84.80;;;;;;5090841;28;20060;-36
2024/03/08 07:29:31;;;;;;;24.70;15.77;;;3.60;85.10;;;;;;5091638;28;20476;-34
2024/03/08 07:34:31;;;;;;;22.42;14.25;;;3.70;85.00;;;;;;5091374;28;20044;-35
2024/03/08 07:36:58;;;;;;;23.45;15.05;;;3.80;85.30;;;;;;5091408;28;20027;-37
2024/03/08 07:39:23;;;;;;;25.00;16.50;;;3.80;85.10;;;;;;5091379;28;20024;-34
2024/03/08 07:41:52;;;;;;;24.15;14.95;;;3.80;85.10;;;;;;5091203;28;20095;-36
2024/03/08 07:44:18;;;;;;;23.17;14.90;;;3.90;86.30;;;;;;5092589;28;20028;-35
2024/03/08 07:46:44;;;;;;;22.67;15.35;;;3.90;85.90;;;;;;5095417;28;20074;-37
2024/03/08 07:49:11;;;;;;;23.73;14.63;;;3.90;86.90;;;;;;5095425;28;20396;-35
2024/03/08 07:51:37;;;;;;;22.75;14.68;;;4.00;87.20;;;;;;5095315;28;20503;-34
2024/03/08 07:54:04;;;;;;;21.02;14.70;;;4.00;87.40;;;;;;5094302;28;20099;-36
2024/03/08 07:56:30;;;;;;;26.75;16.50;;;4.10;88.00;;;;;;5095192;28;20154;-34
2024/03/08 07:58:56;;;;;;;23.35;15.10;;;4.10;88.10;;;;;;5095246;28;20019;-36
2024/03/08 08:01:22;;;;;;;24.70;16.33;;;4.20;88.00;;;;;;5094997;28;20020;-36
2024/03/08 08:03:48;;;;;;;25.48;15.60;;;4.20;87.50;;;;;;5094956;28;20108;-35
2024/03/08 08:06:15;;;;;;;22.92;14.55;;;4.20;87.90;;;;;;5095236;28;20020;-36
2024/03/08 08:08:44;;;;;;;23.05;14.73;;;4.30;88.50;;;;;;5094861;28;20028;-34
2024/03/08 08:11:11;;;;;;;22.00;14.90;;;4.30;89.20;;;;;;5094957;28;20488;-36
2024/03/08 08:13:37;;;;;;;25.73;16.92;;;4.40;89.10;;;;;;5094557;28;20030;-33
2024/03/08 08:16:05;;;;;;;25.83;17.17;;;4.40;89.00;;;;;;5094888;28;20388;-36
2024/03/08 08:18:33;;;;;;;22.13;14.98;;;4.40;88.70;;;;;;5095098;28;20039;-34
2024/03/08 08:21:00;;;;;;;24.77;15.85;;;4.50;89.00;;;;;;5095041;28;20535;-35
2024/03/08 08:23:25;;;;;;;25.48;17.10;;;4.50;88.60;;;;;;5095219;28;20020;-37
2024/03/08 08:25:51;;;;;;;26.10;15.68;;;4.60;88.60;;;;;;5094537;28;20562;-35
2024/03/08 08:28:18;;;;;;;24.08;15.93;;;4.60;88.60;;;;;;5094770;28;20024;-36
2024/03/08 08:30:44;;;;;;;22.17;15.48;;;4.60;88.50;;;;;;5094528;28;20027;-35
2024/03/08 08:33:10;;;;;;;25.80;16.77;;;4.70;87.90;;;;;;5094793;28;20472;-36
2024/03/08 08:35:37;;;;;;;26.40;16.48;;;4.70;88.40;;;;;;5094375;28;20043;-36
2024/03/08 08:38:04;;;;;;;24.80;16.33;;;4.80;87.40;;;;;;5094690;28;20484;-36
2024/03/08 08:40:31;;;;;;;22.52;15.27;;;4.80;87.40;;;;;;5094357;28;20016;-35
2024/03/08 08:42:57;;;;;;;25.15;16.15;;;4.90;87.10;;;;;;5094315;28;20023;-36
2024/03/08 08:45:23;;;;;;;23.75;14.98;;;4.90;87.10;;;;;;5094317;28;20032;-37
2024/03/08 08:47:49;;;;;;;23.88;15.93;;;4.90;87.30;;;;;;5094312;28;20028;-33
2024/03/08 08:50:16;;;;;;;22.92;15.48;;;5.00;87.10;;;;;;5094292;28;20024;-36
2024/03/08 08:52:45;;;;;;;24.80;16.38;;;5.00;87.40;;;;;;5094145;28;20022;-35
2024/03/08 08:55:14;;;;;;;23.92;15.73;;;5.10;87.40;;;;;;5093261;28;20021;-35
2024/03/08 08:57:40;;;;;;;22.52;15.52;;;5.20;87.20;;;;;;5094111;28;20287;-36
2024/03/08 09:00:07;;;;;;;25.77;15.75;;;5.20;87.30;;;;;;5094112;28;20050;-35
2024/03/08 09:02:36;;;;;;;23.92;15.90;;;5.20;87.00;;;;;;5093972;28;20020;-35
2024/03/08 09:05:02;;;;;;;23.98;15.10;;;5.30;86.90;;;;;;5093996;28;20448;-35
2024/03/08 09:07:28;;;;;;;21.38;13.00;;;5.40;86.90;;;;;;5094110;28;20055;-35
2024/03/08 09:09:57;;;;;;;22.55;14.68;;;5.50;87.70;;;;;;5093834;28;20404;-35
2024/03/08 09:12:23;;;;;;;21.92;13.52;;;5.50;88.20;;;;;;5093754;28;20549;-34
2024/03/08 09:14:49;;;;;;;19.92;13.48;;;5.60;88.20;;;;;;5093518;28;20032;-35
2024/03/08 09:17:17;;;;;;;25.38;14.98;;;5.70;89.00;;;;;;5093814;28;20016;-35
2024/03/08 09:19:43;;;;;;;21.77;14.90;;;5.70;89.40;;;;;;5094207;28;20372;-35
2024/03/08 09:22:11;;;;;;;25.65;15.52;;;5.80;88.60;;;;;;5092410;28;20024;-36
2024/03/08 09:24:36;;;;;;;23.08;14.77;;;5.70;88.20;;;;;;5093934;28;20032;-34
2024/03/08 09:27:03;;;;;;;22.60;15.38;;;5.80;88.00;;;;;;5093420;28;20031;-34
2024/03/08 09:29:28;;;;;;;23.75;15.35;;;5.90;87.50;;;;;;5093785;28;20028;-34
2024/03/08 09:31:54;;;;;;;22.90;14.88;;;6.00;87.30;;;;;;5094101;28;20039;-34
2024/03/08 09:34:19;;;;;;;20.73;14.52;;;6.00;87.10;;;;;;5093308;28;20040;-35
2024/03/08 09:36:45;;;;;;;23.27;14.90;;;6.10;87.40;;;;;;5093581;28;20475;-36
2024/03/08 09:39:16;;;;;;;25.98;15.88;;;6.20;87.10;;;;;;5093453;28;20016;-35
2024/03/08 09:41:47;;;;;;;23.23;15.80;;;6.30;86.70;;;;;;5093257;28;20024;-35
2024/03/08 09:44:14;;;;;;;25.00;16.02;;;6.30;85.80;;;;;;5093284;28;20043;-36
2024/03/08 09:46:40;;;;;;;23.30;15.43;;;6.40;86.20;;;;;;5093457;28;20032;-36
2024/03/08 09:49:06;;;;;;;21.58;14.65;;;6.40;86.40;;;;;;5093010;28;20024;-36
2024/03/08 09:51:38;;;;;;;22.00;14.63;;;6.50;86.50;;;;;;5093010;28;20035;-36
2024/03/08 09:54:07;;;;;;;22.92;14.90;;;6.60;86.90;;;;;;5092808;28;20024;-36
2024/03/08 09:56:35;;;;;;;22.70;14.80;;;6.60;86.60;;;;;;5093331;28;20024;-35
2024/03/08 10:01:45;;;;;;;19.15;12.93;;;6.80;87.00;;;;;;5092975;28;20034;-34
2024/03/08 10:04:12;;;;;;;20.95;13.82;;;6.90;87.20;;;;;;5092982;28;20016;-35
2024/03/08 10:06:39;;;;;;;21.55;14.50;;;7.00;87.00;;;;;;5091925;28;20111;-34
2024/03/08 10:09:07;;;;;;;20.65;13.57;;;7.10;86.40;;;;;;5092723;28;20024;-35
2024/03/08 10:11:33;;;;;;;20.45;13.68;;;7.10;86.40;;;;;;5093029;28;20035;-36
2024/03/08 10:14:00;;;;;;;21.63;14.15;;;7.20;85.80;;;;;;5092420;28;20484;-34
2024/03/08 10:16:27;;;;;;;19.23;13.52;;;7.30;86.20;;;;;;5092962;28;20472;-36
2024/03/08 10:18:53;;;;;;;19.98;13.52;;;7.30;85.90;;;;;;5092835;28;20476;-36
2024/03/08 10:21:19;;;;;;;20.15;13.30;;;7.30;86.30;;;;;;5092604;28;20016;-36
2024/03/08 10:23:45;;;;;;;20.65;14.57;;;7.40;86.00;;;;;;5092438;28;20111;-35
2024/03/08 10:26:14;;;;;;;22.00;14.43;;;7.50;85.50;;;;;;5092224;28;20476;-35
2024/03/08 10:28:45;;;;;;;23.30;14.55;;;7.50;85.10;;;;;;5092341;28;20028;-35
2024/03/08 10:31:11;;;;;;;20.85;13.57;;;7.60;84.80;;;;;;5092131;28;20380;-34
2024/03/08 10:33:38;;;;;;;18.20;12.50;;;7.70;84.60;;;;;;5092485;28;20016;-36
2024/03/08 10:36:05;;;;;;;21.17;12.85;;;7.80;84.60;;;;;;5092092;28;20040;-36
2024/03/08 10:38:34;;;;;;;20.55;13.43;;;7.90;84.60;;;;;;5092250;28;20016;-35
2024/03/08 10:41:03;;;;;;;20.17;13.40;;;8.00;84.20;;;;;;5092147;28;20020;-35
2024/03/08 10:43:37;;;;;;;22.08;14.05;;;8.10;84.00;;;;;;5091879;28;20047;-34
2024/03/08 10:46:41;;;;;;;18.25;13.25;;;8.10;82.20;;;;;;5091790;28;20020;-35
2024/03/08 10:49:17;;;;;;;19.73;12.52;;;8.20;82.90;;;;;;5091043;28;20492;-34
2024/03/08 10:51:44;;;;;;;20.40;13.10;;;8.30;83.40;;;;;;5091019;28;20384;-36
2024/03/08 10:54:11;;;;;;;19.33;12.95;;;8.30;83.20;;;;;;5092152;28;20104;-35
2024/03/08 10:56:37;;;;;;;17.77;13.02;;;8.40;83.20;;;;;;5091967;28;20085;-35
2024/03/08 10:59:04;;;;;;;19.67;13.57;;;8.40;82.80;;;;;;5091777;28;20016;-35
2024/03/08 11:01:30;;;;;;;19.13;13.27;;;8.50;82.70;;;;;;5091949;28;20480;-33
2024/03/08 11:03:56;;;;;;;21.63;13.75;;;8.60;82.30;;;;;;5091834;28;20020;-36
2024/03/08 11:06:30;;;;;;;16.58;11.70;;;8.70;81.70;;;;;;5091459;28;20038;-37
2024/03/08 11:08:58;;;;;;;17.10;11.68;;;8.70;83.10;;;;;;5092020;28;20503;-34
2024/03/08 11:11:30;;;;;;;17.98;11.75;;;8.80;83.40;;;;;;5091603;28;20024;-35
2024/03/08 11:13:57;;;;;;;16.33;11.90;;;8.80;82.70;;;;;;5091442;28;20035;-34
2024/03/08 11:16:26;;;;;;;17.13;11.65;;;8.90;83.30;;;;;;5091740;28;20016;-35
2024/03/08 11:19:28;;;;;;;13.15;9.38;;;9.00;83.60;;;;;;5091367;28;20099;-34
2024/03/08 11:21:58;;;;;;;15.52;10.43;;;9.10;85.10;;;;;;5090119;28;20035;-35
2024/03/08 11:24:24;;;;;;;13.32;9.30;;;9.10;84.90;;;;;;5091760;28;20418;-36
2024/03/08 11:26:56;;;;;;;14.23;10.52;;;9.20;85.30;;;;;;5091348;28;20031;-34
2024/03/08 11:29:29;;;;;;;14.90;11.00;;;9.30;85.60;;;;;;5091433;28;20478;-34
2024/03/08 11:32:17;;;;;;;16.45;11.68;;;9.30;85.00;;;;;;5091899;28;20099;-37
2024/03/08 11:34:46;;;;;;;14.80;10.32;;;9.40;84.00;;;;;;5090914;28;20071;-36
2024/03/08 11:37:20;;;;;;;15.50;10.85;;;9.40;84.40;;;;;;5091324;28;20533;-34
2024/03/08 11:39:58;;;;;;;13.43;9.95;;;9.50;84.20;;;;;;5091763;28;20024;-36
2024/03/08 11:42:26;;;;;;;18.25;11.75;;;9.60;84.30;;;;;;5091385;28;20115;-33
2024/03/08 11:44:52;;;;;;;15.05;11.25;;;9.60;83.30;;;;;;5091434;28;20016;-34
2024/03/08 11:47:18;;;;;;;14.88;10.80;;;9.70;81.90;;;;;;5091429;28;20085;-35
2024/03/08 11:49:47;;;;;;;15.85;11.60;;;9.70;82.20;;;;;;5091270;28;20020;-42
2024/03/08 11:52:14;;;;;;;14.25;10.32;;;9.80;82.30;;;;;;5091202;28;20035;-35
2024/03/08 11:54:57;;;;;;;13.68;10.13;;;9.90;82.20;;;;;;5091508;28;20051;-35
2024/03/08 11:57:23;;;;;;;14.43;10.73;;;9.90;82.30;;;;;;5091184;28;20025;-35
2024/03/08 11:59:54;;;;;;;12.18;8.52;;;9.90;82.60;;;;;;5091216;28;20028;-35
2024/03/08 12:02:19;;;;;;;13.52;8.82;;;10.00;82.60;;;;;;5091554;28;20073;-35
2024/03/08 12:04:49;;;;;;;12.82;9.30;;;10.00;82.80;;;;;;5091007;28;20059;-37
2024/03/08 12:07:18;;;;;;;14.00;9.77;;;10.10;83.50;;;;;;5091433;28;20021;-36
2024/03/08 12:10:05;;;;;;;13.80;10.23;;;10.10;81.90;;;;;;5091338;28;20476;-36
2024/03/08 12:12:32;;;;;;;9.80;7.40;;;10.20;82.90;;;;;;5090803;28;20028;-35
2024/03/08 12:14:57;;;;;;;11.68;8.52;;;10.30;83.40;;;;;;5091266;28;20446;-36
2024/03/08 12:17:24;;;;;;;13.07;10.02;;;10.30;84.10;;;;;;5091104;28;20020;-36
2024/03/08 12:19:49;;;;;;;12.15;8.27;;;10.40;82.50;;;;;;5091391;28;20480;-34
2024/03/08 12:22:15;;;;;;;14.55;10.57;;;10.40;82.20;;;;;;5091337;28;20091;-36
2024/03/08 12:24:42;;;;;;;14.60;10.30;;;10.40;82.90;;;;;;5090861;28;20029;-43
2024/03/08 12:27:20;;;;;;;11.30;8.40;;;10.40;83.40;;;;;;5091346;28;20435;-36
2024/03/08 12:29:46;;;;;;;12.38;8.45;;;10.50;83.30;;;;;;5091597;28;20051;-35
2024/03/08 12:32:12;;;;;;;14.30;10.40;;;10.50;83.30;;;;;;5094826;28;20038;-35
2024/03/08 12:34:38;;;;;;;10.35;7.75;;;10.50;82.60;;;;;;5094335;28;20741;-33
2024/03/08 12:37:06;;;;;;;10.98;8.40;;;10.60;83.50;;;;;;5094403;28;20073;-37
2024/03/08 12:39:33;;;;;;;14.20;9.63;;;10.60;83.00;;;;;;5094573;28;20012;-36
2024/03/08 12:41:59;;;;;;;15.77;11.15;;;10.70;83.30;;;;;;5094422;28;20107;-35
2024/03/08 12:44:25;;;;;;;11.52;9.10;;;10.70;82.30;;;;;;5094350;28;20365;-35